createdAt,value
2023-05-13T00:00:49.904Z,14.82
2023-05-13T00:01:50.231Z,14.81
2023-05-13T00:02:49.925Z,14.80
2023-05-13T00:03:50.041Z,14.82
2023-05-13T00:04:49.837Z,14.84
2023-05-13T00:05:49.900Z,14.85
2023-05-13T00:06:49.900Z,14.84
2023-05-13T00:07:49.873Z,14.82
2023-05-13T00:08:49.903Z,14.81
2023-05-13T00:09:49.870Z,14.79
2023-05-13T00:10:49.922Z,14.81
2023-05-13T00:12:49.911Z,14.82
2023-05-13T00:13:49.910Z,14.83
2023-05-13T00:14:49.874Z,14.82
2023-05-13T00:15:49.988Z,14.81
2023-05-13T00:16:49.992Z,14.79
2023-05-13T00:17:49.909Z,14.74
2023-05-13T00:19:49.896Z,14.75
2023-05-13T00:22:49.891Z,14.74
2023-05-13T00:23:49.938Z,14.73
2023-05-13T00:24:49.939Z,14.76
2023-05-13T00:25:49.944Z,14.75
2023-05-13T00:26:49.948Z,14.77
2023-05-13T00:28:49.968Z,14.78
2023-05-13T00:29:49.966Z,14.80
2023-05-13T00:32:50.006Z,14.81
2023-05-13T00:33:49.975Z,14.80
2023-05-13T00:34:49.937Z,14.77
2023-05-13T00:35:49.972Z,14.76
2023-05-13T00:36:49.980Z,14.73
2023-05-13T00:37:49.970Z,14.71
2023-05-13T00:38:49.984Z,14.68
2023-05-13T00:39:49.966Z,14.62
2023-05-13T00:40:49.943Z,14.59
2023-05-13T00:42:49.997Z,14.60
2023-05-13T00:45:50.018Z,14.61
2023-05-13T00:46:49.932Z,14.62
2023-05-13T00:47:50.031Z,14.63
2023-05-13T00:48:49.972Z,14.59
2023-05-13T00:49:50.003Z,14.57
2023-05-13T00:50:50.030Z,14.58
2023-05-13T00:51:49.999Z,14.60
2023-05-13T00:54:50.022Z,14.61
2023-05-13T00:55:49.970Z,14.62
2023-05-13T00:57:50.021Z,14.56
2023-05-13T00:58:50.004Z,14.54
2023-05-13T00:59:49.982Z,14.55
2023-05-13T01:00:50.052Z,14.54
2023-05-13T01:01:49.995Z,14.57
2023-05-13T01:03:50.054Z,14.53
2023-05-13T01:04:49.979Z,14.48
2023-05-13T01:05:50.051Z,14.43
2023-05-13T01:06:50.029Z,14.45
2023-05-13T01:07:50.055Z,14.47
2023-05-13T01:08:50.042Z,14.50
2023-05-13T01:09:50.035Z,14.52
2023-05-13T01:10:50.122Z,14.54
2023-05-13T01:11:50.079Z,14.56
2023-05-13T01:12:50.034Z,14.57
2023-05-13T01:13:50.069Z,14.60
2023-05-13T01:14:50.022Z,14.58
2023-05-13T01:15:50.091Z,14.57
2023-05-13T01:16:50.191Z,14.54
2023-05-13T01:17:50.143Z,14.52
2023-05-13T01:18:50.112Z,14.51
2023-05-13T01:19:50.073Z,14.52
2023-05-13T01:20:50.075Z,14.51
2023-05-13T01:21:50.046Z,14.54
2023-05-13T01:22:50.018Z,14.56
2023-05-13T01:23:50.107Z,14.57
2023-05-13T01:24:50.087Z,14.56
2023-05-13T01:25:50.098Z,14.54
2023-05-13T01:26:50.095Z,14.53
2023-05-13T01:27:50.028Z,14.51
2023-05-13T01:28:50.117Z,14.48
2023-05-13T01:29:50.079Z,14.44
2023-05-13T01:30:50.125Z,14.42
2023-05-13T01:31:50.078Z,14.43
2023-05-13T01:32:50.124Z,14.40
2023-05-13T01:33:50.133Z,14.39
2023-05-13T01:34:50.121Z,14.44
2023-05-13T01:35:50.088Z,14.47
2023-05-13T01:36:50.127Z,14.42
2023-05-13T01:39:50.103Z,14.37
2023-05-13T01:40:50.069Z,14.39
2023-05-13T01:41:50.096Z,14.42
2023-05-13T01:42:50.119Z,14.44
2023-05-13T01:43:50.130Z,14.45
2023-05-13T01:44:50.160Z,14.47
2023-05-13T01:45:50.079Z,14.46
2023-05-13T01:46:50.292Z,14.44
2023-05-13T01:48:50.082Z,14.42
2023-05-13T01:50:50.118Z,14.43
2023-05-13T01:51:50.138Z,14.46
2023-05-13T01:53:50.106Z,14.49
2023-05-13T01:54:50.142Z,14.51
2023-05-13T01:55:50.102Z,14.53
2023-05-13T01:56:50.135Z,14.56
2023-05-13T01:57:50.154Z,14.58
2023-05-13T01:58:50.130Z,14.60
2023-05-13T01:59:50.163Z,14.58
2023-05-13T02:01:50.194Z,14.57
2023-05-13T02:03:50.268Z,14.56
2023-05-13T02:04:50.186Z,14.57
2023-05-13T02:05:50.196Z,14.55
2023-05-13T02:06:50.160Z,14.56
2023-05-13T02:07:50.191Z,14.57
2023-05-13T02:08:50.198Z,14.58
2023-05-13T02:10:50.169Z,14.60
2023-05-13T02:11:50.168Z,14.62
2023-05-13T02:12:50.172Z,14.63
2023-05-13T02:13:50.185Z,14.64
2023-05-13T02:15:50.222Z,14.63
2023-05-13T02:16:50.387Z,14.62
2023-05-13T02:18:50.317Z,14.61
2023-05-13T02:19:50.156Z,14.58
2023-05-13T02:20:50.226Z,14.56
2023-05-13T02:21:50.211Z,14.54
2023-05-13T02:22:50.211Z,14.53
2023-05-13T02:23:50.214Z,14.52
2023-05-13T02:24:50.189Z,14.53
2023-05-13T02:25:50.233Z,14.52
2023-05-13T02:26:50.222Z,14.50
2023-05-13T02:27:50.215Z,14.52
2023-05-13T02:28:50.256Z,14.54
2023-05-13T02:29:50.236Z,14.52
2023-05-13T02:30:50.220Z,14.50
2023-05-13T02:31:50.295Z,14.49
2023-05-13T02:32:50.258Z,14.47
2023-05-13T02:33:50.235Z,14.44
2023-05-13T02:34:50.239Z,14.40
2023-05-13T02:35:50.268Z,14.36
2023-05-13T02:36:50.238Z,14.31
2023-05-13T02:38:50.267Z,14.30
2023-05-13T02:39:50.288Z,14.31
2023-05-13T02:40:50.255Z,14.35
2023-05-13T02:41:50.214Z,14.36
2023-05-13T02:42:50.265Z,14.37
2023-05-13T02:43:50.274Z,14.39
2023-05-13T02:46:50.295Z,14.40
2023-05-13T02:47:50.328Z,14.33
2023-05-13T02:48:50.296Z,14.31
2023-05-13T02:49:50.304Z,14.29
2023-05-13T02:50:50.244Z,14.30
2023-05-13T02:51:50.305Z,14.33
2023-05-13T02:52:50.279Z,14.37
2023-05-13T02:53:50.274Z,14.34
2023-05-13T02:54:50.338Z,14.33
2023-05-13T02:55:50.315Z,14.32
2023-05-13T02:56:50.325Z,14.29
2023-05-13T02:57:50.340Z,14.27
2023-05-13T02:58:50.257Z,14.23
2023-05-13T02:59:50.310Z,14.18
2023-05-13T03:01:50.400Z,14.21
2023-05-13T03:02:50.405Z,14.25
2023-05-13T03:03:50.267Z,14.31
2023-05-13T03:05:50.315Z,14.30
2023-05-13T03:07:50.374Z,14.29
2023-05-13T03:08:50.329Z,14.28
2023-05-13T03:10:50.353Z,14.31
2023-05-13T03:11:50.318Z,14.33
2023-05-13T03:12:50.288Z,14.32
2023-05-13T03:13:50.392Z,14.33
2023-05-13T03:15:50.388Z,14.37
2023-05-13T03:16:50.282Z,14.39
2023-05-13T03:17:50.428Z,14.42
2023-05-13T03:18:50.412Z,14.41
2023-05-13T03:20:50.342Z,14.40
2023-05-13T03:21:50.366Z,14.43
2023-05-13T03:22:50.393Z,14.44
2023-05-13T03:24:50.326Z,14.38
2023-05-13T03:25:50.377Z,14.32
2023-05-13T03:26:50.363Z,14.29
2023-05-13T03:27:50.377Z,14.30
2023-05-13T03:28:50.374Z,14.32
2023-05-13T03:29:50.364Z,14.34
2023-05-13T03:30:50.411Z,14.36
2023-05-13T03:32:50.384Z,14.38
2023-05-13T03:33:50.416Z,14.39
2023-05-13T03:35:50.389Z,14.31
2023-05-13T03:36:50.394Z,14.28
2023-05-13T03:37:50.370Z,14.27
2023-05-13T03:38:50.418Z,14.29
2023-05-13T03:40:50.409Z,14.30
2023-05-13T03:41:50.422Z,14.31
2023-05-13T03:43:50.440Z,14.34
2023-05-13T03:46:50.490Z,14.37
2023-05-13T03:47:50.521Z,14.40
2023-05-13T03:50:50.453Z,14.39
2023-05-13T03:51:50.453Z,14.37
2023-05-13T03:52:50.468Z,14.35
2023-05-13T03:53:50.428Z,14.36
2023-05-13T03:55:50.451Z,14.34
2023-05-13T03:58:50.490Z,14.35
2023-05-13T03:59:50.496Z,14.36
2023-05-13T04:00:50.452Z,14.34
2023-05-13T04:01:50.498Z,14.32
2023-05-13T04:02:50.587Z,14.30
2023-05-13T04:03:50.450Z,14.29
2023-05-13T04:06:50.472Z,14.27
2023-05-13T04:07:50.508Z,14.28
2023-05-13T04:08:50.506Z,14.33
2023-05-13T04:09:50.488Z,14.36
2023-05-13T04:10:50.480Z,14.38
2023-05-13T04:11:50.459Z,14.37
2023-05-13T04:12:50.523Z,14.38
2023-05-13T04:15:50.502Z,14.41
2023-05-13T04:16:50.499Z,14.43
2023-05-13T04:17:50.499Z,14.41
2023-05-13T04:19:50.515Z,14.38
2023-05-13T04:20:50.551Z,14.37
2023-05-13T04:21:50.504Z,14.33
2023-05-13T04:22:50.559Z,14.32
2023-05-13T04:23:50.502Z,14.34
2023-05-13T04:24:50.522Z,14.37
2023-05-13T04:25:50.496Z,14.41
2023-05-13T04:26:50.565Z,14.43
2023-05-13T04:28:50.522Z,14.44
2023-05-13T04:29:50.528Z,14.41
2023-05-13T04:30:50.560Z,14.37
2023-05-13T04:31:50.588Z,14.36
2023-05-13T04:33:50.559Z,14.38
2023-05-13T04:34:50.580Z,14.39
2023-05-13T04:35:50.531Z,14.41
2023-05-13T04:36:50.592Z,14.44
2023-05-13T04:38:50.570Z,14.46
2023-05-13T04:40:50.568Z,14.49
2023-05-13T04:41:50.588Z,14.50
2023-05-13T04:42:50.546Z,14.51
2023-05-13T04:43:50.575Z,14.50
2023-05-13T04:44:50.569Z,14.52
2023-05-13T04:45:50.648Z,14.48
2023-05-13T04:46:50.698Z,14.46
2023-05-13T04:47:50.640Z,14.41
2023-05-13T04:49:50.583Z,14.44
2023-05-13T04:50:50.587Z,14.46
2023-05-13T04:52:50.621Z,14.48
2023-05-13T04:53:50.601Z,14.46
2023-05-13T04:56:50.619Z,14.47
2023-05-13T04:57:50.616Z,14.49
2023-05-13T04:58:50.594Z,14.48
2023-05-13T04:59:50.619Z,14.46
2023-05-13T05:04:50.657Z,14.45
2023-05-13T05:05:50.655Z,14.42
2023-05-13T05:06:50.643Z,14.33
2023-05-13T05:07:50.664Z,14.30
2023-05-13T05:09:50.629Z,14.29
2023-05-13T05:10:50.657Z,14.28
2023-05-13T05:11:50.669Z,14.31
2023-05-13T05:12:50.683Z,14.34
2023-05-13T05:13:50.652Z,14.38
2023-05-13T05:14:50.607Z,14.42
2023-05-13T05:17:50.751Z,14.44
2023-05-13T05:18:50.737Z,14.46
2023-05-13T05:19:50.658Z,14.47
2023-05-13T05:20:50.664Z,14.46
2023-05-13T05:21:50.641Z,14.47
2023-05-13T05:22:50.674Z,14.42
2023-05-13T05:23:50.643Z,14.39
2023-05-13T05:24:50.653Z,14.34
2023-05-13T05:25:57.806Z,14.33
2023-05-13T05:26:50.715Z,14.34
2023-05-13T05:27:50.736Z,14.32
2023-05-13T05:28:50.721Z,14.33
2023-05-13T05:29:50.681Z,14.35
2023-05-13T05:30:50.682Z,14.36
2023-05-13T05:31:50.743Z,14.37
2023-05-13T05:32:50.767Z,14.38
2023-05-13T05:33:50.728Z,14.40
2023-05-13T05:34:50.654Z,14.42
2023-05-13T05:35:50.693Z,14.36
2023-05-13T05:36:50.712Z,14.33
2023-05-13T05:37:50.723Z,14.34
2023-05-13T05:38:50.732Z,14.37
2023-05-13T05:39:50.701Z,14.38
2023-05-13T05:40:50.728Z,14.40
2023-05-13T05:41:50.705Z,14.38
2023-05-13T05:42:50.700Z,14.37
2023-05-13T05:43:50.736Z,14.38
2023-05-13T05:44:50.762Z,14.43
2023-05-13T05:45:50.855Z,14.45
2023-05-13T05:46:50.750Z,14.49
2023-05-13T05:47:50.711Z,14.52
2023-05-13T05:48:50.767Z,14.54
2023-05-13T05:49:50.773Z,14.56
2023-05-13T05:50:50.724Z,14.57
2023-05-13T05:51:50.754Z,14.59
2023-05-13T05:52:50.773Z,14.63
2023-05-13T05:53:50.739Z,14.67
2023-05-13T05:54:50.770Z,14.71
2023-05-13T05:55:52.947Z,14.70
2023-05-13T05:56:50.749Z,14.71
2023-05-13T05:57:50.776Z,14.73
2023-05-13T05:58:50.823Z,14.75
2023-05-13T05:59:50.785Z,14.77
2023-05-13T06:00:50.722Z,14.79
2023-05-13T06:02:50.858Z,14.82
2023-05-13T06:04:50.796Z,14.83
2023-05-13T06:07:50.778Z,14.84
2023-05-13T06:08:50.777Z,14.86
2023-05-13T06:09:50.784Z,14.87
2023-05-13T06:11:50.812Z,14.80
2023-05-13T06:12:50.828Z,14.76
2023-05-13T06:13:50.790Z,14.73
2023-05-13T06:15:50.857Z,14.75
2023-05-13T06:16:50.785Z,14.77
2023-05-13T06:17:50.854Z,14.79
2023-05-13T06:18:50.837Z,14.82
2023-05-13T06:19:50.851Z,14.85
2023-05-13T06:20:50.833Z,14.87
2023-05-13T06:22:50.848Z,14.86
2023-05-13T06:23:50.857Z,14.88
2023-05-13T06:24:50.841Z,14.90
2023-05-13T06:25:50.845Z,14.93
2023-05-13T06:26:50.806Z,14.97
2023-05-13T06:27:50.829Z,14.99
2023-05-13T06:28:50.848Z,15.00
2023-05-13T06:30:50.910Z,15.01
2023-05-13T06:31:50.930Z,15.00
2023-05-13T06:33:01.045Z,14.96
2023-05-13T06:33:50.867Z,14.94
2023-05-13T06:34:50.836Z,14.93
2023-05-13T06:35:50.900Z,14.94
2023-05-13T06:36:50.886Z,14.92
2023-05-13T06:37:50.882Z,14.90
2023-05-13T06:38:50.847Z,14.92
2023-05-13T06:39:50.833Z,14.96
2023-05-13T06:40:50.891Z,15.00
2023-05-13T06:41:50.864Z,15.05
2023-05-13T06:42:50.864Z,15.07
2023-05-13T06:43:50.878Z,15.09
2023-05-13T06:45:50.835Z,15.10
2023-05-13T06:47:50.925Z,15.12
2023-05-13T06:48:50.896Z,15.14
2023-05-13T06:49:50.888Z,15.12
2023-05-13T06:50:50.899Z,15.11
2023-05-13T06:51:50.886Z,15.12
2023-05-13T06:52:50.852Z,15.16
2023-05-13T06:53:50.923Z,15.17
2023-05-13T06:54:50.930Z,15.16
2023-05-13T06:55:50.896Z,15.10
2023-05-13T06:56:50.901Z,15.07
2023-05-13T06:57:50.951Z,15.04
2023-05-13T06:58:50.927Z,15.06
2023-05-13T07:00:50.942Z,15.08
2023-05-13T07:01:50.926Z,15.09
2023-05-13T07:02:50.999Z,15.12
2023-05-13T07:03:50.936Z,15.16
2023-05-13T07:04:50.904Z,15.18
2023-05-13T07:05:50.960Z,15.21
2023-05-13T07:06:50.960Z,15.22
2023-05-13T07:07:50.932Z,15.16
2023-05-13T07:08:50.890Z,15.13
2023-05-13T07:09:50.915Z,15.10
2023-05-13T07:10:51.204Z,15.08
2023-05-13T07:11:51.005Z,15.09
2023-05-13T07:13:50.934Z,15.11
2023-05-13T07:14:50.950Z,15.16
2023-05-13T07:16:51.050Z,15.18
2023-05-13T07:17:51.083Z,15.19
2023-05-13T07:18:51.032Z,15.15
2023-05-13T07:19:50.959Z,15.08
2023-05-13T07:20:50.973Z,15.07
2023-05-13T07:22:51.011Z,15.06
2023-05-13T07:23:50.972Z,15.08
2023-05-13T07:24:50.996Z,15.11
2023-05-13T07:26:50.935Z,15.12
2023-05-13T07:27:50.996Z,15.14
2023-05-13T07:29:50.981Z,15.08
2023-05-13T07:30:51.070Z,15.06
2023-05-13T07:31:51.000Z,15.07
2023-05-13T07:32:53.697Z,15.09
2023-05-13T07:33:50.997Z,15.14
2023-05-13T07:34:51.011Z,15.18
2023-05-13T07:35:51.024Z,15.19
2023-05-13T07:36:51.024Z,15.23
2023-05-13T07:37:50.978Z,15.27
2023-05-13T07:38:51.025Z,15.31
2023-05-13T07:39:51.025Z,15.28
2023-05-13T07:40:50.981Z,15.26
2023-05-13T07:41:51.050Z,15.27
2023-05-13T07:42:50.990Z,15.29
2023-05-13T07:43:51.050Z,15.33
2023-05-13T07:44:51.049Z,15.34
2023-05-13T07:46:51.072Z,15.35
2023-05-13T07:47:51.053Z,15.37
2023-05-13T07:48:51.047Z,15.36
2023-05-13T07:49:51.117Z,15.38
2023-05-13T07:50:51.031Z,15.39
2023-05-13T07:51:51.071Z,15.43
2023-05-13T07:52:51.071Z,15.45
2023-05-13T07:53:51.074Z,15.48
2023-05-13T07:54:51.055Z,15.46
2023-05-13T07:55:51.065Z,15.45
2023-05-13T07:56:51.044Z,15.38
2023-05-13T07:57:51.057Z,15.36
2023-05-13T07:58:51.088Z,15.39
2023-05-13T07:59:51.065Z,15.41
2023-05-13T08:00:51.093Z,15.43
2023-05-13T08:01:51.113Z,15.48
2023-05-13T08:02:51.188Z,15.53
2023-05-13T08:03:51.374Z,15.57
2023-05-13T08:04:51.179Z,15.58
2023-05-13T08:05:51.118Z,15.56
2023-05-13T08:06:51.122Z,15.55
2023-05-13T08:07:51.049Z,15.57
2023-05-13T08:08:51.065Z,15.60
2023-05-13T08:09:51.175Z,15.62
2023-05-13T08:10:51.104Z,15.64
2023-05-13T08:11:51.200Z,15.70
2023-05-13T08:12:51.229Z,15.69
2023-05-13T08:13:51.103Z,15.70
2023-05-13T08:14:51.186Z,15.68
2023-05-13T08:15:51.198Z,15.66
2023-05-13T08:16:51.198Z,15.67
2023-05-13T08:17:51.209Z,15.68
2023-05-13T08:18:51.299Z,15.72
2023-05-13T08:19:51.128Z,15.75
2023-05-13T08:20:51.134Z,15.79
2023-05-13T08:21:51.090Z,15.80
2023-05-13T08:23:51.202Z,15.77
2023-05-13T08:24:51.089Z,15.78
2023-05-13T08:25:51.140Z,15.81
2023-05-13T08:27:51.303Z,15.82
2023-05-13T08:28:54.495Z,15.77
2023-05-13T08:29:51.150Z,15.76
2023-05-13T08:30:51.141Z,15.77
2023-05-13T08:31:51.164Z,15.79
2023-05-13T08:33:51.234Z,15.83
2023-05-13T08:34:51.135Z,15.86
2023-05-13T08:35:51.147Z,15.88
2023-05-13T08:36:51.173Z,15.91
2023-05-13T08:37:51.115Z,15.95
2023-05-13T08:38:51.409Z,15.97
2023-05-13T08:39:51.180Z,16.01
2023-05-13T08:40:51.210Z,16.04
2023-05-13T08:41:51.195Z,16.10
2023-05-13T08:42:51.123Z,16.11
2023-05-13T08:43:51.172Z,16.14
2023-05-13T08:44:51.149Z,16.15
2023-05-13T08:46:51.172Z,16.16
2023-05-13T08:47:51.201Z,16.17
2023-05-13T08:48:51.178Z,16.18
2023-05-13T08:49:51.244Z,16.15
2023-05-13T08:51:51.206Z,16.14
2023-05-13T08:52:51.223Z,16.16
2023-05-13T08:53:51.242Z,16.19
2023-05-13T08:54:51.226Z,16.23
2023-05-13T08:55:51.207Z,16.24
2023-05-13T08:56:51.261Z,16.26
2023-05-13T08:57:51.234Z,16.28
2023-05-13T08:58:51.238Z,16.31
2023-05-13T08:59:51.215Z,16.34
2023-05-13T09:00:51.183Z,16.36
2023-05-13T09:02:51.269Z,16.32
2023-05-13T09:04:51.314Z,16.34
2023-05-13T09:06:51.230Z,16.35
2023-05-13T09:07:51.266Z,16.23
2023-05-13T09:08:51.241Z,16.22
2023-05-13T09:09:51.236Z,16.23
2023-05-13T09:12:51.248Z,16.24
2023-05-13T09:13:51.265Z,16.23
2023-05-13T09:14:51.310Z,16.21
2023-05-13T09:15:51.319Z,16.19
2023-05-13T09:16:51.225Z,16.15
2023-05-13T09:17:51.318Z,16.12
2023-05-13T09:18:51.447Z,16.09
2023-05-13T09:19:51.414Z,16.07
2023-05-13T09:20:51.293Z,16.05
2023-05-13T09:21:51.261Z,16.04
2023-05-13T09:22:51.282Z,16.03
2023-05-13T09:23:51.295Z,16.00
2023-05-13T09:24:51.284Z,15.99
2023-05-13T09:25:51.330Z,15.98
2023-05-13T09:26:51.316Z,15.99
2023-05-13T09:27:51.307Z,15.97
2023-05-13T09:28:51.334Z,15.95
2023-05-13T09:29:51.278Z,15.96
2023-05-13T09:30:51.380Z,15.98
2023-05-13T09:31:51.312Z,16.01
2023-05-13T09:32:51.344Z,15.98
2023-05-13T09:33:51.303Z,15.97
2023-05-13T09:34:51.256Z,15.98
2023-05-13T09:35:51.286Z,16.00
2023-05-13T09:36:51.399Z,16.01
2023-05-13T09:37:51.297Z,16.04
2023-05-13T09:38:51.314Z,16.06
2023-05-13T09:39:51.351Z,16.01
2023-05-13T09:40:51.317Z,15.99
2023-05-13T09:41:51.367Z,16.01
2023-05-13T09:42:51.321Z,16.04
2023-05-13T09:43:51.326Z,15.99
2023-05-13T09:44:51.342Z,15.97
2023-05-13T09:46:51.401Z,16.00
2023-05-13T09:47:51.343Z,16.02
2023-05-13T09:48:51.370Z,16.01
2023-05-13T09:49:51.341Z,16.02
2023-05-13T09:50:51.398Z,16.04
2023-05-13T09:51:51.338Z,16.02
2023-05-13T09:53:51.374Z,15.98
2023-05-13T09:54:51.345Z,16.00
2023-05-13T09:55:51.350Z,16.05
2023-05-13T09:56:51.381Z,16.10
2023-05-13T09:57:51.401Z,16.12
2023-05-13T09:58:51.391Z,16.13
2023-05-13T09:59:51.385Z,16.11
2023-05-13T10:00:51.421Z,16.09
2023-05-13T10:01:51.493Z,16.10
2023-05-13T10:02:51.395Z,16.14
2023-05-13T10:03:51.392Z,16.15
2023-05-13T10:04:51.370Z,16.17
2023-05-13T10:05:51.458Z,16.16
2023-05-13T10:06:51.383Z,16.17
2023-05-13T10:07:51.417Z,16.20
2023-05-13T10:08:51.367Z,16.18
2023-05-13T10:09:51.410Z,16.15
2023-05-13T10:10:51.440Z,16.06
2023-05-13T10:11:51.450Z,15.97
2023-05-13T10:12:51.448Z,15.96
2023-05-13T10:13:51.385Z,15.99
2023-05-13T10:14:51.418Z,16.03
2023-05-13T10:15:51.385Z,16.07
2023-05-13T10:16:51.429Z,16.09
2023-05-13T10:17:51.481Z,16.15
2023-05-13T10:18:51.475Z,16.22
2023-05-13T10:19:51.418Z,16.30
2023-05-13T10:20:51.422Z,16.34
2023-05-13T10:21:51.372Z,16.36
2023-05-13T10:22:51.459Z,16.41
2023-05-13T10:23:51.481Z,16.48
2023-05-13T10:24:51.467Z,16.53
2023-05-13T10:25:51.458Z,16.51
2023-05-13T10:26:51.424Z,16.50
2023-05-13T10:27:51.412Z,16.51
2023-05-13T10:28:51.459Z,16.52
2023-05-13T10:29:51.409Z,16.55
2023-05-13T10:30:51.639Z,16.60
2023-05-13T10:31:51.484Z,16.69
2023-05-13T10:32:51.519Z,16.78
2023-05-13T10:33:51.492Z,16.85
2023-05-13T10:34:51.447Z,16.91
2023-05-13T10:35:51.464Z,17.02
2023-05-13T10:36:51.489Z,17.12
2023-05-13T10:37:51.502Z,17.21
2023-05-13T10:38:51.490Z,17.25
2023-05-13T10:39:51.477Z,17.30
2023-05-13T10:40:51.511Z,17.34
2023-05-13T10:41:51.501Z,17.32
2023-05-13T10:42:51.450Z,17.30
2023-05-13T10:44:51.498Z,17.31
2023-05-13T10:45:51.585Z,17.32
2023-05-13T10:47:51.642Z,17.25
2023-05-13T10:48:51.514Z,17.19
2023-05-13T10:49:51.505Z,17.20
2023-05-13T10:50:51.585Z,17.17
2023-05-13T10:51:51.534Z,17.14
2023-05-13T10:52:51.508Z,17.12
2023-05-13T10:53:51.527Z,17.06
2023-05-13T10:54:51.532Z,17.09
2023-05-13T10:55:51.463Z,17.13
2023-05-13T10:56:51.530Z,17.11
2023-05-13T10:57:51.508Z,17.13
2023-05-13T10:58:51.543Z,17.16
2023-05-13T10:59:51.489Z,17.23
2023-05-13T11:00:51.509Z,17.25
2023-05-13T11:01:51.545Z,17.21
2023-05-13T11:02:51.588Z,17.22
2023-05-13T11:03:51.612Z,17.25
2023-05-13T11:04:51.561Z,17.26
2023-05-13T11:05:51.493Z,17.30
2023-05-13T11:06:51.551Z,17.32
2023-05-13T11:07:51.581Z,17.23
2023-05-13T11:08:53.089Z,17.16
2023-05-13T11:09:51.517Z,17.11
2023-05-13T11:10:51.622Z,17.00
2023-05-13T11:11:51.532Z,16.97
2023-05-13T11:12:51.575Z,16.94
2023-05-13T11:13:51.517Z,16.96
2023-05-13T11:14:51.588Z,16.95
2023-05-13T11:16:51.582Z,16.92
2023-05-13T11:17:51.587Z,16.86
2023-05-13T11:18:51.741Z,16.67
2023-05-13T11:19:51.584Z,16.65
2023-05-13T11:20:55.048Z,16.73
2023-05-13T11:21:51.523Z,16.88
2023-05-13T11:22:51.574Z,17.06
2023-05-13T11:23:51.628Z,17.21
2023-05-13T11:24:51.586Z,17.38
2023-05-13T11:25:51.580Z,17.49
2023-05-13T11:26:51.553Z,17.59
2023-05-13T11:27:51.595Z,17.69
2023-05-13T11:28:51.601Z,17.74
2023-05-13T11:29:51.604Z,17.79
2023-05-13T11:30:51.578Z,17.77
2023-05-13T11:31:51.880Z,17.78
2023-05-13T11:32:51.836Z,17.85
2023-05-13T11:33:51.610Z,17.92
2023-05-13T11:34:51.599Z,18.06
2023-05-13T11:35:51.706Z,18.20
2023-05-13T11:36:51.631Z,18.22
2023-05-13T11:37:51.630Z,18.24
2023-05-13T11:38:51.623Z,18.30
2023-05-13T11:39:51.589Z,18.35
2023-05-13T11:40:51.637Z,18.47
2023-05-13T11:41:51.687Z,18.56
2023-05-13T11:42:51.620Z,18.57
2023-05-13T11:43:51.628Z,18.61
2023-05-13T11:45:51.704Z,18.57
2023-05-13T11:46:51.644Z,18.40
2023-05-13T11:47:51.619Z,18.30
2023-05-13T11:48:51.686Z,18.22
2023-05-13T11:49:51.659Z,18.09
2023-05-13T11:50:51.673Z,18.19
2023-05-13T11:51:51.655Z,18.24
2023-05-13T11:52:51.623Z,18.25
2023-05-13T11:53:51.691Z,18.29
2023-05-13T11:54:51.688Z,18.32
2023-05-13T11:55:51.729Z,18.38
2023-05-13T11:56:51.682Z,18.51
2023-05-13T11:57:51.680Z,18.57
2023-05-13T11:58:51.660Z,18.59
2023-05-13T11:59:51.710Z,18.60
2023-05-13T12:00:51.632Z,18.50
2023-05-13T12:01:51.720Z,18.43
2023-05-13T12:02:51.855Z,18.34
2023-05-13T12:03:51.732Z,18.40
2023-05-13T12:04:51.799Z,18.44
2023-05-13T12:05:51.676Z,18.40
2023-05-13T12:06:51.723Z,18.37
2023-05-13T12:07:51.662Z,18.24
2023-05-13T12:09:51.768Z,18.19
2023-05-13T12:10:51.701Z,18.23
2023-05-13T12:11:51.741Z,17.99
2023-05-13T12:12:51.743Z,17.95
2023-05-13T12:13:51.663Z,18.02
2023-05-13T12:14:51.728Z,18.03
2023-05-13T12:15:51.771Z,18.08
2023-05-13T12:16:51.716Z,18.02
2023-05-13T12:17:51.817Z,17.98
2023-05-13T12:18:51.743Z,18.02
2023-05-13T12:19:51.754Z,18.04
2023-05-13T12:20:51.790Z,18.09
2023-05-13T12:21:51.720Z,18.05
2023-05-13T12:22:51.748Z,17.94
2023-05-13T12:23:51.739Z,17.97
2023-05-13T12:24:51.744Z,18.09
2023-05-13T12:25:51.770Z,18.18
2023-05-13T12:26:51.729Z,18.12
2023-05-13T12:27:51.720Z,18.16
2023-05-13T12:28:51.745Z,18.13
2023-05-13T12:29:51.801Z,18.18
2023-05-13T12:30:51.841Z,18.16
2023-05-13T12:31:51.930Z,18.13
2023-05-13T12:33:51.775Z,18.06
2023-05-13T12:34:51.784Z,18.15
2023-05-13T12:35:51.827Z,18.20
2023-05-13T12:36:51.763Z,18.26
2023-05-13T12:37:51.826Z,18.22
2023-05-13T12:39:51.767Z,18.17
2023-05-13T12:40:51.779Z,18.08
2023-05-13T12:41:51.811Z,18.01
2023-05-13T12:42:51.778Z,17.99
2023-05-13T12:43:51.796Z,18.11
2023-05-13T12:44:51.781Z,18.15
2023-05-13T12:45:51.796Z,18.12
2023-05-13T12:46:51.877Z,18.01
2023-05-13T12:48:51.808Z,18.03
2023-05-13T12:49:51.762Z,18.04
2023-05-13T12:51:51.867Z,18.07
2023-05-13T12:52:51.758Z,18.04
2023-05-13T12:53:51.838Z,18.00
2023-05-13T12:54:51.837Z,17.89
2023-05-13T12:55:51.847Z,17.93
2023-05-13T12:56:51.842Z,17.88
2023-05-13T12:57:51.827Z,18.00
2023-05-13T12:58:51.822Z,18.10
2023-05-13T12:59:51.841Z,18.15
2023-05-13T13:00:51.848Z,18.11
2023-05-13T13:01:51.804Z,18.12
2023-05-13T13:02:51.961Z,18.17
2023-05-13T13:03:51.971Z,18.18
2023-05-13T13:04:51.898Z,18.10
2023-05-13T13:05:51.835Z,17.99
2023-05-13T13:06:51.871Z,17.94
2023-05-13T13:07:51.885Z,17.92
2023-05-13T13:08:51.866Z,17.95
2023-05-13T13:09:51.878Z,17.97
2023-05-13T13:10:51.853Z,18.00
2023-05-13T13:11:51.892Z,18.08
2023-05-13T13:12:51.874Z,18.24
2023-05-13T13:13:51.868Z,18.37
2023-05-13T13:14:51.874Z,18.49
2023-05-13T13:15:51.923Z,18.53
2023-05-13T13:16:51.928Z,18.60
2023-05-13T13:17:51.957Z,18.66
2023-05-13T13:18:53.431Z,18.75
2023-05-13T13:19:51.882Z,18.85
2023-05-13T13:20:51.882Z,18.77
2023-05-13T13:21:51.867Z,18.38
2023-05-13T13:22:51.921Z,18.02
2023-05-13T13:23:51.886Z,17.93
2023-05-13T13:24:51.897Z,17.72
2023-05-13T13:25:51.928Z,17.57
2023-05-13T13:26:51.901Z,17.63
2023-05-13T13:27:51.887Z,17.71
2023-05-13T13:28:51.932Z,17.81
2023-05-13T13:29:51.937Z,17.85
2023-05-13T13:30:51.934Z,17.93
2023-05-13T13:31:51.920Z,17.82
2023-05-13T13:32:51.963Z,17.87
2023-05-13T13:33:51.924Z,18.00
2023-05-13T13:34:51.940Z,18.05
2023-05-13T13:35:51.961Z,18.10
2023-05-13T13:36:51.893Z,18.16
2023-05-13T13:37:51.938Z,18.28
2023-05-13T13:38:51.945Z,18.18
2023-05-13T13:39:53.327Z,18.08
2023-05-13T13:40:51.951Z,18.03
2023-05-13T13:41:52.015Z,18.04
2023-05-13T13:42:51.923Z,18.07
2023-05-13T13:43:51.999Z,18.05
2023-05-13T13:44:51.925Z,17.99
2023-05-13T13:45:52.009Z,18.02
2023-05-13T13:46:51.978Z,18.04
2023-05-13T13:47:52.048Z,18.06
2023-05-13T13:48:51.918Z,18.03
2023-05-13T13:49:51.917Z,18.01
2023-05-13T13:50:52.900Z,17.80
2023-05-13T13:51:51.960Z,17.66
2023-05-13T13:52:51.955Z,17.53
2023-05-13T13:53:52.001Z,17.51
2023-05-13T13:54:52.008Z,17.53
2023-05-13T13:56:52.007Z,17.48
2023-05-13T13:58:52.034Z,17.50
2023-05-13T13:59:52.030Z,17.56
2023-05-13T14:00:51.963Z,17.49
2023-05-13T14:01:52.036Z,17.37
2023-05-13T14:02:52.114Z,17.34
2023-05-13T14:03:52.177Z,17.38
2023-05-13T14:04:51.993Z,17.45
2023-05-13T14:05:51.984Z,17.54
2023-05-13T14:06:52.038Z,17.59
2023-05-13T14:07:52.032Z,17.70
2023-05-13T14:08:52.022Z,17.73
2023-05-13T14:09:52.062Z,17.70
2023-05-13T14:10:51.993Z,17.68
2023-05-13T14:11:52.034Z,17.75
2023-05-13T14:12:52.017Z,17.86
2023-05-13T14:13:52.016Z,17.84
2023-05-13T14:15:52.125Z,17.89
2023-05-13T14:16:52.047Z,17.87
2023-05-13T14:17:52.067Z,17.75
2023-05-13T14:18:52.075Z,17.69
2023-05-13T14:19:52.021Z,17.71
2023-05-13T14:20:52.033Z,17.62
2023-05-13T14:21:52.060Z,17.63
2023-05-13T14:22:52.254Z,17.57
2023-05-13T14:23:52.015Z,17.55
2023-05-13T14:25:52.047Z,17.58
2023-05-13T14:26:52.060Z,17.65
2023-05-13T14:27:52.054Z,17.72
2023-05-13T14:28:52.093Z,17.80
2023-05-13T14:29:52.099Z,17.82
2023-05-13T14:30:52.110Z,17.79
2023-05-13T14:31:52.162Z,17.69
2023-05-13T14:32:52.138Z,17.59
2023-05-13T14:33:52.117Z,17.60
2023-05-13T14:34:52.097Z,17.53
2023-05-13T14:35:52.096Z,17.47
2023-05-13T14:36:52.097Z,17.46
2023-05-13T14:37:52.125Z,17.55
2023-05-13T14:38:52.075Z,17.61
2023-05-13T14:39:52.075Z,17.66